createdAt,value
2023-05-10T00:01:13.925Z,993.89
2023-05-10T00:06:59.763Z,993.86
2023-05-10T00:12:45.709Z,993.87
2023-05-10T00:18:30.741Z,993.88
2023-05-10T00:24:15.382Z,993.82
2023-05-10T00:30:00.138Z,993.81
2023-05-10T00:35:45.889Z,993.82
2023-05-10T00:41:30.541Z,993.81
2023-05-10T00:47:15.235Z,993.85
2023-05-10T00:53:00.057Z,993.86
2023-05-10T00:58:44.764Z,993.81
2023-05-10T01:04:29.675Z,993.8
2023-05-10T01:10:15.355Z,993.82
2023-05-10T01:16:01.086Z,993.82
2023-05-10T01:21:50.520Z,993.78
2023-05-10T01:27:47.473Z,993.79
2023-05-10T01:33:37.476Z,993.77
2023-05-10T01:39:25.937Z,993.77
2023-05-10T01:45:16.743Z,993.76
2023-05-10T01:51:01.573Z,993.79
2023-05-10T01:56:47.324Z,993.8
2023-05-10T02:02:34.250Z,993.79
2023-05-10T02:08:21.047Z,993.84
2023-05-10T02:14:07.830Z,993.82
2023-05-10T02:19:53.534Z,993.89
2023-05-10T02:25:39.248Z,993.96
2023-05-10T02:31:24.347Z,994.01
2023-05-10T02:37:11.055Z,993.95
2023-05-10T02:42:57.046Z,993.95
2023-05-10T02:48:41.911Z,993.97
2023-05-10T02:54:29.495Z,993.97
2023-05-10T03:00:15.919Z,993.96
2023-05-10T03:06:01.321Z,994.02
2023-05-10T03:11:49.637Z,994.06
2023-05-10T03:17:38.422Z,994.07
2023-05-10T03:23:28.959Z,994.08
2023-05-10T03:29:15.118Z,994.14
2023-05-10T03:34:59.972Z,994.16
2023-05-10T03:40:44.748Z,994.17
2023-05-10T03:46:29.503Z,994.18
2023-05-10T03:52:14.436Z,994.27
2023-05-10T03:57:59.160Z,994.28
2023-05-10T04:03:43.952Z,994.36
2023-05-10T04:09:28.900Z,994.37
2023-05-10T04:15:14.402Z,994.41
2023-05-10T04:20:59.380Z,994.48
2023-05-10T04:26:44.232Z,994.44
2023-05-10T04:32:29.071Z,994.48
2023-05-10T04:38:14.303Z,994.53
2023-05-10T04:43:58.849Z,994.55
2023-05-10T04:49:43.542Z,994.54
2023-05-10T04:55:28.312Z,994.55
2023-05-10T05:01:13.055Z,994.72
2023-05-10T05:06:57.702Z,994.76
2023-05-10T05:12:42.736Z,994.86
2023-05-10T05:18:27.568Z,994.97
2023-05-10T05:24:12.505Z,995.03
2023-05-10T05:29:58.752Z,995.12
2023-05-10T05:35:43.387Z,995.15
2023-05-10T05:41:28.101Z,995.2
2023-05-10T05:47:12.836Z,995.23
2023-05-10T05:52:57.556Z,995.26
2023-05-10T05:58:43.398Z,995.31
2023-05-10T06:04:28.494Z,995.36
2023-05-10T06:10:13.677Z,995.38
2023-05-10T06:16:00.933Z,995.32
2023-05-10T06:21:46.029Z,995.39
2023-05-10T06:27:30.752Z,995.43
2023-05-10T06:33:15.348Z,995.44
2023-05-10T06:38:59.837Z,995.44
2023-05-10T06:44:44.739Z,995.5
2023-05-10T06:50:29.614Z,995.51
2023-05-10T06:56:15.209Z,995.57
2023-05-10T07:01:59.954Z,995.62
2023-05-10T07:07:44.666Z,995.65
2023-05-10T07:13:29.580Z,995.69
2023-05-10T07:19:14.536Z,995.73
2023-05-10T07:24:59.318Z,995.84
2023-05-10T07:30:45.060Z,995.89
2023-05-10T07:36:30.149Z,995.89
2023-05-10T07:42:14.759Z,995.93
2023-05-10T07:47:59.584Z,996.06
2023-05-10T07:53:44.483Z,996.07
2023-05-10T07:59:29.440Z,996.14
2023-05-10T08:05:14.183Z,996.17
2023-05-10T08:10:59.870Z,996.18
2023-05-10T08:16:44.560Z,996.21
2023-05-10T08:22:29.160Z,996.28
2023-05-10T08:28:13.928Z,996.36
2023-05-10T08:33:58.843Z,996.39
2023-05-10T08:39:43.590Z,996.46
2023-05-10T08:45:32.247Z,996.49
2023-05-10T08:51:19.967Z,996.54
2023-05-10T08:57:05.020Z,996.57
2023-05-10T09:02:50.204Z,996.66
2023-05-10T09:08:35.217Z,996.66
2023-05-10T09:14:22.049Z,996.7
2023-05-10T09:20:07.928Z,996.73
2023-05-10T09:25:57.653Z,996.79
2023-05-10T09:31:52.036Z,996.86
2023-05-10T09:37:36.742Z,996.93
2023-05-10T09:43:21.985Z,996.91
2023-05-10T09:49:07.509Z,996.99
2023-05-10T09:54:55.074Z,997.06
2023-05-10T10:00:41.665Z,997.05
2023-05-10T10:06:31.429Z,997.09
2023-05-10T10:12:16.424Z,997.06
2023-05-10T10:18:01.358Z,997
2023-05-10T10:23:48.045Z,997.05
2023-05-10T10:29:37.967Z,997.05
2023-05-10T10:35:23.102Z,997.02
2023-05-10T10:41:11.731Z,997.02
2023-05-10T10:47:07.495Z,997.03
2023-05-10T10:52:52.828Z,997.03
2023-05-10T10:58:38.307Z,996.99
2023-05-10T11:04:23.148Z,996.98
2023-05-10T11:10:11.106Z,997
2023-05-10T11:15:55.787Z,996.97
2023-05-10T11:21:45.477Z,996.99
2023-05-10T11:27:31.426Z,996.99
2023-05-10T11:33:17.498Z,997.02
2023-05-10T11:39:02.489Z,997
2023-05-10T11:44:47.852Z,997.03
2023-05-10T11:50:32.463Z,997.01
2023-05-10T11:56:17.458Z,997.03
2023-05-10T12:02:02.250Z,996.98
2023-05-10T12:07:47.932Z,997
2023-05-10T12:13:32.813Z,996.98
2023-05-10T12:19:20.510Z,996.99
2023-05-10T12:25:05.690Z,996.99
2023-05-10T12:30:50.309Z,996.99
2023-05-10T12:36:35.046Z,996.97
2023-05-10T12:42:23.020Z,996.99
2023-05-10T12:48:08.014Z,996.98
2023-05-10T12:53:53.105Z,997.01
2023-05-10T12:59:39.568Z,997.06
2023-05-10T13:05:24.297Z,997.1
2023-05-10T13:11:09.574Z,997.09
2023-05-10T13:16:54.695Z,997.09
2023-05-10T13:22:41.796Z,997.14
2023-05-10T13:28:26.485Z,997.19
2023-05-10T13:34:11.373Z,997.19
2023-05-10T13:39:56.009Z,997.18
2023-05-10T13:45:41.041Z,997.07
2023-05-10T13:51:25.723Z,997.13
2023-05-10T13:57:10.441Z,997.1
2023-05-10T14:02:57.362Z,997.1
2023-05-10T14:08:42.389Z,997.13
2023-05-10T14:14:27.442Z,997.11
2023-05-10T14:20:13.257Z,997.05
2023-05-10T14:25:58.181Z,997.08
2023-05-10T14:31:43.514Z,997.04
2023-05-10T14:37:28.929Z,997.05
2023-05-10T14:43:14.744Z,997.07
2023-05-10T14:48:59.686Z,997.09
2023-05-10T14:54:44.650Z,997.09
2023-05-10T15:00:30.229Z,997.02
2023-05-10T15:06:16.492Z,997.04
2023-05-10T15:12:01.357Z,996.99
2023-05-10T15:17:46.129Z,996.93
2023-05-10T15:23:31.088Z,997.01
2023-05-10T15:29:15.789Z,996.99
2023-05-10T15:35:00.362Z,996.92
2023-05-10T15:40:45.007Z,997.06
2023-05-10T15:46:30.708Z,997.05
2023-05-10T15:52:15.434Z,997.08
2023-05-10T15:58:00.044Z,997.11
2023-05-10T16:03:44.869Z,997.13
2023-05-10T16:09:29.763Z,997.16
2023-05-10T16:15:15.427Z,997.2
2023-05-10T16:21:01.098Z,997.26
2023-05-10T16:26:45.999Z,997.28
2023-05-10T16:32:30.618Z,997.28
2023-05-10T16:38:15.405Z,997.33
2023-05-10T16:44:00.367Z,997.4
2023-05-10T16:49:45.233Z,997.4
2023-05-10T16:55:29.974Z,997.47
2023-05-10T17:01:14.791Z,997.46
2023-05-10T17:06:59.513Z,997.51
2023-05-10T17:12:44.281Z,997.55
2023-05-10T17:18:29.095Z,997.52
2023-05-10T17:24:13.930Z,997.57
2023-05-10T17:30:00.857Z,997.52
2023-05-10T17:35:45.763Z,997.49
2023-05-10T17:41:30.429Z,997.48
2023-05-10T17:47:16.174Z,997.53
2023-05-10T17:53:01.010Z,997.51
2023-05-10T17:58:45.826Z,997.58
2023-05-10T18:04:30.906Z,997.7
2023-05-10T18:10:16.130Z,997.73
2023-05-10T18:16:01.701Z,997.74
2023-05-10T18:21:46.458Z,997.85
2023-05-10T18:27:31.577Z,997.88
2023-05-10T18:33:16.784Z,997.88
2023-05-10T18:39:01.491Z,997.84
2023-05-10T18:44:46.396Z,997.89
2023-05-10T18:50:33.116Z,997.91
2023-05-10T18:56:17.730Z,997.9
2023-05-10T19:02:02.406Z,997.92
2023-05-10T19:07:47.336Z,997.97
2023-05-10T19:13:32.077Z,998.01
2023-05-10T19:19:17.438Z,998.11
2023-05-10T19:25:06.025Z,998.13
2023-05-10T19:30:51.717Z,998.25
2023-05-10T19:36:37.118Z,998.26
2023-05-10T19:42:22.205Z,998.33
2023-05-10T19:48:07.936Z,998.44
2023-05-10T19:53:55.043Z,998.46
2023-05-10T19:59:39.774Z,998.51
2023-05-10T20:05:24.914Z,998.5
2023-05-10T20:11:10.113Z,998.5
2023-05-10T20:16:55.046Z,998.53
2023-05-10T20:22:39.961Z,998.57
2023-05-10T20:28:25.912Z,998.59
2023-05-10T20:34:10.414Z,998.58
2023-05-10T20:39:55.354Z,998.57
2023-05-10T20:45:41.253Z,998.57
2023-05-10T20:51:26.166Z,998.61
2023-05-10T20:57:10.918Z,998.6
2023-05-10T21:02:55.696Z,998.54
2023-05-10T21:08:40.584Z,998.57
2023-05-10T21:14:25.432Z,998.56
2023-05-10T21:20:11.164Z,998.55
2023-05-10T21:25:55.814Z,998.57
2023-05-10T21:31:40.403Z,998.6
2023-05-10T21:37:25.222Z,998.63
2023-05-10T21:43:09.936Z,998.59
2023-05-10T21:48:54.748Z,998.56
2023-05-10T21:54:39.349Z,998.59
2023-05-10T22:00:23.986Z,998.53
2023-05-10T22:06:09.121Z,998.52
2023-05-10T22:11:53.950Z,998.52
2023-05-10T22:17:38.924Z,998.52
2023-05-10T22:23:24.795Z,998.64
2023-05-10T22:29:09.585Z,998.67
2023-05-10T22:34:54.564Z,998.72
2023-05-10T22:40:41.376Z,998.68
2023-05-10T22:46:26.287Z,998.69
2023-05-10T22:52:11.364Z,998.73
2023-05-10T22:57:56.051Z,998.71
2023-05-10T23:03:40.805Z,998.73
2023-05-10T23:09:25.710Z,998.79
2023-05-10T23:15:11.538Z,998.81
2023-05-10T23:20:56.501Z,998.8
2023-05-10T23:26:41.060Z,998.78
2023-05-10T23:32:25.853Z,998.79
2023-05-10T23:38:10.569Z,998.84
2023-05-10T23:43:55.444Z,998.83
2023-05-10T23:49:40.106Z,998.89
2023-05-10T23:55:24.968Z,998.88
